Time;durP1;ratioP1;P1;durP2;ratioP2;P2;SDS_P1;SDS_P2;PMS_P1;PMS_P2;Temp;Humidity;BMP_temperature;BMP_pressure;BME280_temperature;BME280_humidity;BME280_pressure;Samples;Min_cycle;Max_cycle;Signal;HPM_P1;HPM_P2
2022/11/17 00:00:34;;;;;;;31.83;15.07;;;;;;;;;;5040037;28;86253;-58
2022/11/17 00:03:03;;;;;;;29.20;14.30;;;;;;;;;;5038205;27;88138;-58
2022/11/17 00:05:32;;;;;;;28.67;14.17;;;;;;;;;;5060316;27;91361;-58
2022/11/17 00:08:01;;;;;;;23.30;11.97;;;;;;;;;;5059698;27;87974;-58
2022/11/17 00:10:29;;;;;;;20.23;11.17;;;;;;;;;;5060640;27;86906;-58
2022/11/17 00:15:44;;;;;;;22.83;10.90;;;;;;;;;;5060200;27;87810;-58
2022/11/17 00:23:56;;;;;;;16.50;8.07;;;;;;;;;;4998169;28;88254;-58
2022/11/17 00:26:25;;;;;;;19.17;8.87;;;;;;;;;;5046641;27;87464;-58
2022/11/17 00:28:53;;;;;;;13.97;7.17;;;;;;;;;;5063384;27;87066;-58
2022/11/17 00:34:08;;;;;;;12.53;5.73;;;;;;;;;;5063569;27;90193;-58
2022/11/17 00:36:38;;;;;;;13.37;5.63;;;;;;;;;;5064456;27;90061;-58
2022/11/17 00:39:06;;;;;;;10.77;5.53;;;;;;;;;;5064114;27;87054;-58
2022/11/17 00:41:34;;;;;;;11.47;5.87;;;;;;;;;;5064218;27;87166;-58
2022/11/17 00:44:03;;;;;;;8.80;4.57;;;;;;;;;;5063761;27;87940;-58
2022/11/17 00:46:31;;;;;;;11.83;5.00;;;;;;;;;;5063222;27;88996;-58
2022/11/17 00:48:59;;;;;;;6.23;3.80;;;;;;;;;;5064113;27;87086;-58
2022/11/17 00:51:28;;;;;;;8.00;4.33;;;;;;;;;;5065328;27;86261;-58
2022/11/17 00:53:57;;;;;;;9.13;4.33;;;;;;;;;;5064521;27;88004;-58
2022/11/17 00:56:26;;;;;;;5.70;3.53;;;;;;;;;;5063918;27;89096;-58
2022/11/17 00:58:54;;;;;;;9.77;3.70;;;;;;;;;;5063944;27;88042;-58
2022/11/17 01:01:22;;;;;;;6.87;3.37;;;;;;;;;;5064779;27;87026;-58
2022/11/17 01:04:01;;;;;;;6.00;3.63;;;;;;;;;;5064259;27;87069;-58
2022/11/17 01:06:30;;;;;;;3.60;2.57;;;;;;;;;;5064465;27;88973;-58
2022/11/17 01:09:00;;;;;;;5.97;3.30;;;;;;;;;;5051111;27;87034;-58
2022/11/17 01:11:29;;;;;;;5.47;3.07;;;;;;;;;;5042994;28;87174;-58
2022/11/17 01:13:57;;;;;;;5.50;3.30;;;;;;;;;;5043075;28;89086;-58
2022/11/17 01:16:26;;;;;;;5.03;2.77;;;;;;;;;;5043674;27;87581;-58
2022/11/17 01:18:54;;;;;;;5.47;2.93;;;;;;;;;;5043512;27;86961;-58
2022/11/17 01:21:23;;;;;;;4.30;2.53;;;;;;;;;;5043320;28;86962;-58
2022/11/17 01:23:52;;;;;;;4.33;3.00;;;;;;;;;;5073589;27;89993;-58
2022/11/17 01:26:22;;;;;;;4.07;2.17;;;;;;;;;;5084097;27;88520;-58
2022/11/17 01:28:50;;;;;;;4.83;2.47;;;;;;;;;;5084181;27;86990;-58
2022/11/17 01:31:19;;;;;;;4.63;2.43;;;;;;;;;;5084091;27;87040;-58
2022/11/17 01:33:47;;;;;;;5.00;1.80;;;;;;;;;;5083803;27;88973;-58
2022/11/17 01:36:16;;;;;;;5.10;1.43;;;;;;;;;;5083329;27;87822;-58
2022/11/17 01:38:45;;;;;;;2.27;1.73;;;;;;;;;;5073209;27;87054;-58
2022/11/17 01:41:14;;;;;;;2.03;1.43;;;;;;;;;;5063429;27;86315;-58
2022/11/17 01:43:44;;;;;;;2.17;1.53;;;;;;;;;;5063119;27;87960;-58
2022/11/17 01:46:14;;;;;;;2.27;1.47;;;;;;;;;;5063071;27;87503;-58
2022/11/17 01:48:43;;;;;;;2.03;1.40;;;;;;;;;;5061505;27;88128;-58
2022/11/17 01:51:11;;;;;;;1.50;1.10;;;;;;;;;;5063107;27;87127;-58
2022/11/17 01:53:41;;;;;;;1.23;1.10;;;;;;;;;;5062063;27;88211;-58
2022/11/17 01:56:10;;;;;;;4.07;1.17;;;;;;;;;;5062832;27;88875;-58
2022/11/17 01:58:40;;;;;;;0.80;0.80;;;;;;;;;;5063640;27;87039;-58
2022/11/17 02:01:10;;;;;;;1.87;1.50;;;;;;;;;;5063323;27;87104;-58
2022/11/17 02:03:38;;;;;;;4.80;0.87;;;;;;;;;;5065128;27;89144;-58
2022/11/17 02:06:07;;;;;;;1.03;0.80;;;;;;;;;;5083129;27;87752;-58
2022/11/17 02:08:36;;;;;;;1.47;0.87;;;;;;;;;;5083242;27;87053;-58
2022/11/17 02:11:05;;;;;;;1.43;0.90;;;;;;;;;;5083095;27;86978;-58
2022/11/17 02:13:33;;;;;;;2.63;1.03;;;;;;;;;;5082082;27;90023;-58
2022/11/17 02:16:02;;;;;;;2.13;1.03;;;;;;;;;;5082632;27;88574;-58
2022/11/17 02:18:31;;;;;;;3.07;1.30;;;;;;;;;;5083332;27;87028;-58
2022/11/17 02:21:05;;;;;;;1.93;0.70;;;;;;;;;;5082930;27;86958;-58
2022/11/17 02:23:40;;;;;;;2.73;0.80;;;;;;;;;;5069584;27;88140;-58
2022/11/17 02:26:16;;;;;;;2.73;0.50;;;;;;;;;;5062257;27;87692;-58
2022/11/17 02:28:46;;;;;;;0.80;0.70;;;;;;;;;;5062341;27;87118;-57
2022/11/17 02:31:16;;;;;;;3.40;1.10;;;;;;;;;;5063061;27;86402;-57
2022/11/17 02:33:47;;;;;;;1.47;0.77;;;;;;;;;;5061675;27;88976;-57
2022/11/17 02:36:17;;;;;;;3.07;0.90;;;;;;;;;;5062779;27;87404;-57
2022/11/17 02:38:48;;;;;;;2.07;0.67;;;;;;;;;;5068417;27;87814;-57
2022/11/17 02:41:18;;;;;;;0.60;0.60;;;;;;;;;;5083132;27;87039;-57
2022/11/17 02:44:04;;;;;;;1.07;0.70;;;;;;;;;;5082546;27;88016;-57
2022/11/17 02:46:35;;;;;;;0.70;0.70;;;;;;;;;;5082786;27;87082;-57
2022/11/17 02:49:04;;;;;;;0.43;0.43;;;;;;;;;;5082186;27;87037;-58
2022/11/17 02:51:32;;;;;;;0.53;0.53;;;;;;;;;;5082341;27;87609;-58
2022/11/17 02:54:01;;;;;;;1.00;0.90;;;;;;;;;;5082401;27;86930;-57
2022/11/17 02:56:29;;;;;;;3.23;1.53;;;;;;;;;;5082295;27;88906;-58
2022/11/17 02:59:00;;;;;;;0.90;0.60;;;;;;;;;;5082185;27;87041;-57
2022/11/17 03:01:36;;;;;;;0.67;0.60;;;;;;;;;;5082548;27;87847;-57
2022/11/17 03:04:18;;;;;;;2.23;0.73;;;;;;;;;;5069343;27;90715;-57
2022/11/17 03:06:48;;;;;;;0.87;0.87;;;;;;;;;;5041043;28;89382;-58
2022/11/17 03:09:19;;;;;;;0.93;0.70;;;;;;;;;;5041993;28;87082;-57
2022/11/17 03:11:48;;;;;;;0.80;0.50;;;;;;;;;;5041704;28;87125;-57
2022/11/17 03:14:20;;;;;;;1.57;0.57;;;;;;;;;;5041237;28;88711;-57
2022/11/17 03:16:51;;;;;;;0.70;0.50;;;;;;;;;;5041273;28;90342;-57
2022/11/17 03:19:20;;;;;;;0.93;0.60;;;;;;;;;;5041216;28;87273;-58
2022/11/17 03:21:49;;;;;;;1.90;0.57;;;;;;;;;;5041799;28;86234;-58
2022/11/17 03:24:17;;;;;;;1.40;0.67;;;;;;;;;;5040644;28;88126;-58
2022/11/17 03:26:46;;;;;;;1.97;0.40;;;;;;;;;;5041226;28;87868;-57
2022/11/17 03:29:15;;;;;;;0.70;0.70;;;;;;;;;;5041084;28;88006;-57
2022/11/17 03:31:45;;;;;;;1.10;0.50;;;;;;;;;;5041264;28;86940;-58
2022/11/17 03:34:14;;;;;;;0.83;0.60;;;;;;;;;;5040920;28;88248;-58
2022/11/17 03:36:44;;;;;;;0.87;0.80;;;;;;;;;;5041063;28;89473;-58
2022/11/17 03:39:13;;;;;;;0.70;0.70;;;;;;;;;;5041556;28;87041;-57
2022/11/17 03:41:42;;;;;;;2.80;0.50;;;;;;;;;;5040914;28;86938;-58
2022/11/17 03:44:10;;;;;;;0.50;0.33;;;;;;;;;;5040655;28;89194;-57
2022/11/17 03:46:39;;;;;;;0.83;0.53;;;;;;;;;;5040927;27;88646;-58
2022/11/17 03:49:09;;;;;;;0.53;0.53;;;;;;;;;;5040721;27;86896;-58
2022/11/17 03:51:38;;;;;;;0.40;0.40;;;;;;;;;;5041133;28;87059;-58
2022/11/17 03:54:06;;;;;;;1.60;0.50;;;;;;;;;;5040323;28;89046;-57
2022/11/17 03:56:35;;;;;;;0.20;0.20;;;;;;;;;;5040666;28;89414;-57
2022/11/17 03:59:04;;;;;;;1.00;0.73;;;;;;;;;;5040739;28;87056;-58
2022/11/17 04:01:32;;;;;;;0.43;0.30;;;;;;;;;;5040225;28;87057;-58
2022/11/17 04:04:01;;;;;;;0.40;0.40;;;;;;;;;;5039688;27;88936;-57
2022/11/17 04:06:31;;;;;;;0.40;0.40;;;;;;;;;;5040574;28;88802;-58
2022/11/17 04:08:59;;;;;;;0.67;0.53;;;;;;;;;;5040800;28;86985;-57
2022/11/17 04:16:59;;;;;;;0.30;0.30;;;;;;;;;;5040406;28;88715;-57
2022/11/17 04:19:27;;;;;;;0.40;0.40;;;;;;;;;;5039999;28;88032;-57
2022/11/17 04:21:57;;;;;;;0.97;0.50;;;;;;;;;;5040643;28;87193;-57
2022/11/17 04:24:25;;;;;;;0.40;0.40;;;;;;;;;;5040017;28;88011;-58
2022/11/17 04:29:39;;;;;;;0.23;0.23;;;;;;;;;;5040531;28;86950;-57
2022/11/17 04:32:08;;;;;;;0.33;0.33;;;;;;;;;;5040150;27;86978;-57
2022/11/17 04:34:37;;;;;;;0.50;0.50;;;;;;;;;;5040330;28;88020;-58
2022/11/17 04:37:16;;;;;;;0.30;0.30;;;;;;;;;;5040230;27;87548;-58
2022/11/17 04:39:44;;;;;;;2.17;1.20;;;;;;;;;;5039937;28;86993;-57
2022/11/17 04:42:12;;;;;;;0.33;0.30;;;;;;;;;;5039909;28;86978;-58
2022/11/17 04:44:40;;;;;;;0.87;0.20;;;;;;;;;;5039090;28;90213;-58
2022/11/17 04:47:08;;;;;;;0.40;0.27;;;;;;;;;;5040106;28;88886;-58
2022/11/17 04:49:37;;;;;;;0.73;0.30;;;;;;;;;;5040086;28;87065;-58
2022/11/17 04:52:07;;;;;;;0.30;0.30;;;;;;;;;;5040150;28;86918;-58
2022/11/17 04:54:35;;;;;;;0.23;0.23;;;;;;;;;;5039939;28;88084;-57
2022/11/17 04:57:03;;;;;;;0.83;0.60;;;;;;;;;;5039875;28;88955;-58
2022/11/17 04:59:32;;;;;;;0.97;0.80;;;;;;;;;;5039880;28;87257;-57
2022/11/17 05:02:00;;;;;;;0.30;0.30;;;;;;;;;;5039974;28;86316;-58
2022/11/17 05:07:21;;;;;;;0.47;0.40;;;;;;;;;;5056244;27;87567;-57
2022/11/17 05:09:49;;;;;;;2.60;0.93;;;;;;;;;;5057438;27;88179;-58
2022/11/17 05:15:03;;;;;;;0.40;0.40;;;;;;;;;;5062583;27;88216;-58
2022/11/17 05:17:30;;;;;;;2.10;0.40;;;;;;;;;;5063193;27;87398;-58
2022/11/17 05:20:00;;;;;;;0.20;0.20;;;;;;;;;;5062643;27;87041;-57
2022/11/17 05:25:15;;;;;;;0.40;0.40;;;;;;;;;;5063285;27;89113;-57
2022/11/17 05:27:43;;;;;;;0.30;0.30;;;;;;;;;;5063360;27;88869;-57
2022/11/17 05:30:12;;;;;;;0.50;0.50;;;;;;;;;;5062852;27;87175;-58
2022/11/17 05:32:40;;;;;;;0.97;0.57;;;;;;;;;;5063167;27;86979;-58
2022/11/17 05:35:09;;;;;;;0.47;0.40;;;;;;;;;;5062497;27;89781;-57
2022/11/17 05:37:39;;;;;;;0.60;0.50;;;;;;;;;;5063107;27;89902;-58
2022/11/17 05:40:08;;;;;;;0.30;0.30;;;;;;;;;;5063155;27;87215;-57
2022/11/17 05:42:36;;;;;;;2.67;0.70;;;;;;;;;;5062402;27;87024;-57
2022/11/17 05:45:05;;;;;;;0.33;0.33;;;;;;;;;;5062825;27;89144;-57
2022/11/17 05:47:33;;;;;;;0.30;0.30;;;;;;;;;;5062151;27;90522;-57
2022/11/17 05:50:01;;;;;;;0.37;0.37;;;;;;;;;;5062821;27;87075;-57
2022/11/17 05:52:29;;;;;;;0.83;0.30;;;;;;;;;;5062247;27;86449;-57
2022/11/17 05:54:59;;;;;;;0.87;0.87;;;;;;;;;;5062308;27;88065;-57
2022/11/17 05:57:29;;;;;;;2.20;0.67;;;;;;;;;;5062158;27;88105;-57
2022/11/17 05:59:58;;;;;;;1.90;0.57;;;;;;;;;;5062089;27;87950;-57
2022/11/17 06:02:27;;;;;;;0.40;0.40;;;;;;;;;;5062478;27;86896;-58
2022/11/17 06:04:55;;;;;;;0.60;0.33;;;;;;;;;;5050887;27;87911;-57
2022/11/17 06:07:24;;;;;;;0.50;0.33;;;;;;;;;;5041432;28;88824;-57
2022/11/17 06:09:52;;;;;;;0.20;0.20;;;;;;;;;;5041815;28;87099;-57
2022/11/17 06:12:22;;;;;;;1.63;0.43;;;;;;;;;;5042093;28;87135;-57
2022/11/17 06:14:50;;;;;;;1.00;0.50;;;;;;;;;;5038111;28;88832;-57
2022/11/17 06:17:19;;;;;;;0.60;0.60;;;;;;;;;;5042518;28;88440;-57
2022/11/17 06:19:51;;;;;;;0.50;0.50;;;;;;;;;;5042564;28;86948;-57
2022/11/17 06:22:19;;;;;;;0.47;0.30;;;;;;;;;;5041861;28;87034;-57
2022/11/17 06:24:47;;;;;;;0.40;0.20;;;;;;;;;;5040333;27;89056;-58
2022/11/17 06:27:16;;;;;;;0.40;0.40;;;;;;;;;;5041210;28;89420;-57
2022/11/17 06:29:46;;;;;;;0.90;0.37;;;;;;;;;;5041322;28;87931;-59
2022/11/17 06:32:14;;;;;;;0.50;0.50;;;;;;;;;;5041257;28;86932;-59
2022/11/17 06:34:43;;;;;;;0.30;0.30;;;;;;;;;;5040683;28;89394;-57
2022/11/17 06:37:11;;;;;;;0.30;0.30;;;;;;;;;;5041388;28;88839;-57
2022/11/17 06:39:41;;;;;;;1.20;0.60;;;;;;;;;;5042132;28;87026;-57
2022/11/17 06:42:09;;;;;;;0.67;0.47;;;;;;;;;;5041841;28;86303;-57
2022/11/17 06:44:38;;;;;;;0.80;0.43;;;;;;;;;;5040774;28;87069;-58
2022/11/17 06:47:07;;;;;;;0.33;0.33;;;;;;;;;;5040958;28;87835;-57
2022/11/17 06:49:36;;;;;;;0.97;0.60;;;;;;;;;;5040530;28;87952;-57
2022/11/17 06:52:04;;;;;;;0.47;0.47;;;;;;;;;;5041879;28;86952;-57
2022/11/17 06:54:32;;;;;;;0.20;0.20;;;;;;;;;;5040604;28;87878;-57
2022/11/17 06:57:01;;;;;;;1.00;0.40;;;;;;;;;;5040995;28;87672;-57
2022/11/17 06:59:29;;;;;;;0.50;0.47;;;;;;;;;;5041152;28;87058;-58
2022/11/17 07:01:58;;;;;;;0.80;0.60;;;;;;;;;;5041058;28;87118;-57
2022/11/17 07:04:27;;;;;;;0.53;0.40;;;;;;;;;;5040770;27;88173;-57
2022/11/17 07:06:56;;;;;;;0.33;0.33;;;;;;;;;;5041027;28;88823;-57
2022/11/17 07:09:25;;;;;;;0.57;0.50;;;;;;;;;;5041099;28;87046;-58
2022/11/17 07:11:53;;;;;;;0.40;0.40;;;;;;;;;;5041132;28;87014;-57
2022/11/17 07:14:21;;;;;;;0.30;0.30;;;;;;;;;;5039501;28;90178;-59
2022/11/17 07:16:50;;;;;;;0.50;0.40;;;;;;;;;;5040756;28;89772;-58
2022/11/17 07:19:18;;;;;;;0.40;0.40;;;;;;;;;;5040954;28;87335;-57
2022/11/17 07:21:48;;;;;;;0.70;0.30;;;;;;;;;;5040621;28;87105;-58
2022/11/17 07:24:16;;;;;;;0.50;0.30;;;;;;;;;;5041186;28;89378;-58
2022/11/17 07:26:45;;;;;;;0.40;0.40;;;;;;;;;;5040411;28;88886;-58
2022/11/17 07:29:13;;;;;;;0.40;0.40;;;;;;;;;;5041372;28;87079;-57
2022/11/17 07:31:42;;;;;;;0.20;0.20;;;;;;;;;;5041970;28;86844;-58
2022/11/17 07:34:10;;;;;;;0.40;0.23;;;;;;;;;;5040630;28;88161;-58
2022/11/17 07:36:38;;;;;;;0.20;0.20;;;;;;;;;;5019819;28;89172;-58
2022/11/17 07:39:08;;;;;;;4.63;0.40;;;;;;;;;;5039771;28;88096;-58
2022/11/17 07:41:37;;;;;;;0.50;0.47;;;;;;;;;;5040496;28;86997;-58
2022/11/17 07:44:05;;;;;;;0.23;0.23;;;;;;;;;;5040215;28;88243;-58
2022/11/17 07:46:33;;;;;;;0.30;0.30;;;;;;;;;;5040437;28;88894;-58
2022/11/17 07:49:02;;;;;;;0.70;0.70;;;;;;;;;;5040282;28;87106;-58
2022/11/17 07:51:30;;;;;;;0.30;0.30;;;;;;;;;;5040760;28;87086;-58
2022/11/17 07:53:58;;;;;;;0.30;0.30;;;;;;;;;;5039528;28;88393;-58
2022/11/17 07:56:28;;;;;;;0.40;0.40;;;;;;;;;;5040781;28;88981;-58
2022/11/17 07:58:57;;;;;;;0.97;0.20;;;;;;;;;;5040397;28;87088;-59
2022/11/17 08:01:26;;;;;;;0.40;0.40;;;;;;;;;;5041153;28;87116;-60
2022/11/17 08:03:55;;;;;;;1.47;0.40;;;;;;;;;;5039625;27;90080;-60
2022/11/17 08:06:24;;;;;;;0.53;0.53;;;;;;;;;;5039305;28;89854;-60
2022/11/17 08:08:53;;;;;;;1.37;0.60;;;;;;;;;;5040132;28;86962;-60
2022/11/17 08:11:21;;;;;;;0.40;0.40;;;;;;;;;;5040547;28;88989;-59
2022/11/17 08:13:51;;;;;;;0.43;0.43;;;;;;;;;;5038999;28;89548;-60
2022/11/17 08:16:19;;;;;;;0.23;0.23;;;;;;;;;;5040837;28;87797;-59
2022/11/17 08:18:48;;;;;;;0.67;0.30;;;;;;;;;;5040511;28;86994;-59
2022/11/17 08:21:19;;;;;;;0.30;0.30;;;;;;;;;;5041228;28;86393;-59
2022/11/17 08:23:50;;;;;;;0.43;0.40;;;;;;;;;;5040566;28;89176;-59
2022/11/17 08:26:19;;;;;;;1.53;0.60;;;;;;;;;;5041393;28;87488;-59
2022/11/17 08:28:47;;;;;;;0.40;0.40;;;;;;;;;;5040463;28;87940;-59
2022/11/17 08:31:25;;;;;;;0.40;0.40;;;;;;;;;;5041150;28;87163;-60
2022/11/17 08:33:53;;;;;;;0.50;0.50;;;;;;;;;;5040774;28;89119;-60
2022/11/17 08:36:22;;;;;;;0.30;0.30;;;;;;;;;;5040812;28;88995;-60
2022/11/17 08:38:50;;;;;;;0.70;0.20;;;;;;;;;;5040851;28;86924;-60
2022/11/17 08:41:20;;;;;;;1.47;0.57;;;;;;;;;;5040463;28;87409;-60
2022/11/17 08:43:48;;;;;;;0.40;0.40;;;;;;;;;;5040288;28;88163;-60
2022/11/17 08:46:17;;;;;;;0.20;0.17;;;;;;;;;;5040810;28;86392;-60
2022/11/17 08:48:47;;;;;;;0.47;0.37;;;;;;;;;;5041988;28;87102;-60
2022/11/17 08:51:22;;;;;;;1.90;0.40;;;;;;;;;;5044562;28;87021;-60
2022/11/17 08:53:51;;;;;;;0.40;0.40;;;;;;;;;;5043090;28;90008;-60
2022/11/17 08:56:19;;;;;;;0.67;0.27;;;;;;;;;;5043621;28;90003;-60
2022/11/17 08:58:48;;;;;;;1.50;0.60;;;;;;;;;;5043346;28;86993;-60
2022/11/17 09:01:16;;;;;;;0.20;0.20;;;;;;;;;;5043821;28;87059;-60
2022/11/17 09:03:47;;;;;;;0.40;0.40;;;;;;;;;;5044851;27;88141;-60
2022/11/17 09:06:16;;;;;;;0.67;0.33;;;;;;;;;;5063948;27;88830;-60
2022/11/17 09:08:45;;;;;;;0.40;0.40;;;;;;;;;;5064424;27;87040;-60
2022/11/17 09:11:23;;;;;;;0.40;0.40;;;;;;;;;;5064354;27;86306;-60
2022/11/17 09:13:52;;;;;;;0.40;0.40;;;;;;;;;;5063766;27;88149;-60
2022/11/17 09:16:22;;;;;;;0.20;0.20;;;;;;;;;;5064150;27;88929;-60
2022/11/17 09:18:56;;;;;;;0.30;0.30;;;;;;;;;;5063423;27;88003;-60
2022/11/17 09:21:25;;;;;;;0.30;0.30;;;;;;;;;;5063494;27;87007;-60
2022/11/17 09:23:54;;;;;;;0.10;0.10;;;;;;;;;;5064097;27;88004;-60
2022/11/17 09:26:22;;;;;;;0.20;0.20;;;;;;;;;;5063792;27;87879;-60
2022/11/17 09:28:51;;;;;;;0.40;0.40;;;;;;;;;;5063636;27;86966;-60
2022/11/17 09:31:19;;;;;;;0.33;0.33;;;;;;;;;;5064069;27;86905;-60
2022/11/17 09:33:48;;;;;;;0.20;0.20;;;;;;;;;;5063348;27;89171;-60
2022/11/17 09:36:18;;;;;;;1.07;0.30;;;;;;;;;;5064381;27;88861;-60
2022/11/17 09:38:46;;;;;;;0.40;0.33;;;;;;;;;;5063649;27;87084;-60
2022/11/17 09:41:26;;;;;;;0.30;0.30;;;;;;;;;;5063782;27;87772;-60
2022/11/17 09:44:04;;;;;;;0.80;0.50;;;;;;;;;;5062770;27;89992;-60
2022/11/17 09:46:36;;;;;;;0.30;0.30;;;;;;;;;;5063168;27;88681;-60
2022/11/17 09:49:06;;;;;;;0.40;0.40;;;;;;;;;;5063435;27;87079;-60
2022/11/17 09:51:36;;;;;;;1.70;0.50;;;;;;;;;;5063689;27;87645;-60
2022/11/17 09:54:06;;;;;;;0.67;0.40;;;;;;;;;;5063295;27;89048;-60
2022/11/17 09:56:34;;;;;;;0.33;0.33;;;;;;;;;;5063044;27;88011;-60
2022/11/17 09:59:04;;;;;;;0.47;0.23;;;;;;;;;;5063370;27;87135;-60
2022/11/17 10:01:32;;;;;;;0.30;0.30;;;;;;;;;;5062611;27;86251;-60
2022/11/17 10:04:00;;;;;;;0.30;0.30;;;;;;;;;;5062632;27;89739;-60
2022/11/17 10:06:29;;;;;;;0.23;0.23;;;;;;;;;;5063161;27;88300;-60
2022/11/17 10:09:00;;;;;;;1.60;0.40;;;;;;;;;;5063298;27;88219;-60
2022/11/17 10:11:32;;;;;;;1.20;0.40;;;;;;;;;;5063181;27;86980;-60
2022/11/17 10:14:02;;;;;;;0.10;0.10;;;;;;;;;;5062744;27;89132;-60
2022/11/17 10:16:31;;;;;;;0.73;0.40;;;;;;;;;;5062945;27;88949;-60
2022/11/17 10:18:59;;;;;;;0.33;0.23;;;;;;;;;;5062600;27;87033;-60
2022/11/17 10:21:29;;;;;;;0.40;0.40;;;;;;;;;;5063121;27;87122;-60
2022/11/17 10:23:59;;;;;;;0.53;0.20;;;;;;;;;;5062943;27;89205;-60
2022/11/17 10:26:27;;;;;;;0.60;0.40;;;;;;;;;;5063300;27;89164;-60
2022/11/17 10:29:05;;;;;;;1.80;0.50;;;;;;;;;;5063235;27;87111;-60
2022/11/17 10:31:40;;;;;;;1.23;0.40;;;;;;;;;;5063233;27;86997;-61
2022/11/17 10:34:09;;;;;;;0.30;0.30;;;;;;;;;;5062273;27;88976;-60
2022/11/17 10:36:38;;;;;;;0.40;0.40;;;;;;;;;;5062525;27;88706;-60
2022/11/17 10:39:09;;;;;;;0.23;0.23;;;;;;;;;;5062522;27;87216;-61
2022/11/17 10:41:47;;;;;;;0.20;0.20;;;;;;;;;;5062155;27;87156;-60
2022/11/17 10:44:17;;;;;;;0.13;0.13;;;;;;;;;;5062508;27;89067;-60
2022/11/17 10:46:53;;;;;;;0.40;0.40;;;;;;;;;;5062619;27;88693;-60
2022/11/17 10:49:30;;;;;;;1.37;0.50;;;;;;;;;;5062489;27;87014;-60
2022/11/17 10:52:04;;;;;;;0.40;0.40;;;;;;;;;;5062962;27;86878;-61
2022/11/17 10:54:34;;;;;;;1.80;1.53;;;;;;;;;;5061843;27;88222;-60
2022/11/17 10:57:02;;;;;;;0.30;0.30;;;;;;;;;;5062491;27;87003;-60
2022/11/17 10:59:31;;;;;;;0.67;0.37;;;;;;;;;;5062224;27;87982;-60
2022/11/17 11:01:59;;;;;;;0.47;0.47;;;;;;;;;;5062414;27;86984;-60
2022/11/17 11:04:28;;;;;;;0.30;0.30;;;;;;;;;;5061850;27;88047;-60
2022/11/17 11:07:10;;;;;;;0.47;0.43;;;;;;;;;;5062208;27;90889;-60
2022/11/17 11:09:42;;;;;;;0.93;0.20;;;;;;;;;;5062131;27;87066;-60
2022/11/17 11:12:11;;;;;;;0.40;0.40;;;;;;;;;;5061600;27;86919;-60
2022/11/17 11:14:40;;;;;;;0.40;0.40;;;;;;;;;;5061816;27;89219;-60
2022/11/17 11:17:10;;;;;;;0.67;0.67;;;;;;;;;;5062112;27;88975;-60
2022/11/17 11:19:38;;;;;;;2.00;0.40;;;;;;;;;;5061287;27;88093;-60
2022/11/17 11:22:17;;;;;;;0.50;0.37;;;;;;;;;;5061477;27;86923;-60
2022/11/17 11:24:51;;;;;;;0.30;0.30;;;;;;;;;;5061766;27;88957;-60
2022/11/17 11:27:24;;;;;;;0.50;0.47;;;;;;;;;;5061411;27;89876;-60
2022/11/17 11:29:54;;;;;;;0.30;0.30;;;;;;;;;;5061447;27;87030;-60
2022/11/17 11:32:24;;;;;;;0.37;0.37;;;;;;;;;;5061503;27;87087;-61
2022/11/17 11:35:10;;;;;;;0.67;0.40;;;;;;;;;;5061094;27;88162;-60
2022/11/17 11:37:47;;;;;;;0.40;0.40;;;;;;;;;;5061683;27;88880;-60
2022/11/17 11:40:20;;;;;;;0.83;0.50;;;;;;;;;;5062184;27;86974;-60
2022/11/17 11:42:51;;;;;;;0.63;0.63;;;;;;;;;;5061582;27;87109;-60
2022/11/17 11:45:21;;;;;;;0.60;0.60;;;;;;;;;;5060892;27;89317;-60
2022/11/17 11:48:11;;;;;;;0.80;0.50;;;;;;;;;;5061770;27;88951;-60
2022/11/17 11:50:42;;;;;;;0.30;0.30;;;;;;;;;;5056912;27;88111;-60
2022/11/17 11:53:15;;;;;;;0.40;0.40;;;;;;;;;;5061409;27;86980;-60
2022/11/17 11:55:45;;;;;;;0.27;0.27;;;;;;;;;;5060750;27;89023;-60
2022/11/17 11:58:15;;;;;;;0.50;0.30;;;;;;;;;;5060902;27;89043;-60
2022/11/17 12:00:43;;;;;;;0.63;0.63;;;;;;;;;;5061399;27;88068;-60
2022/11/17 12:03:14;;;;;;;0.43;0.43;;;;;;;;;;5061483;27;87203;-60
2022/11/17 12:05:46;;;;;;;0.23;0.23;;;;;;;;;;5061247;27;90442;-60
2022/11/17 12:08:15;;;;;;;0.43;0.43;;;;;;;;;;5061124;27;88870;-60
2022/11/17 12:10:47;;;;;;;1.07;0.57;;;;;;;;;;5061291;27;87103;-60
2022/11/17 12:13:16;;;;;;;0.50;0.50;;;;;;;;;;5060612;27;87056;-60
2022/11/17 12:15:44;;;;;;;0.83;0.47;;;;;;;;;;5060262;27;90161;-60
2022/11/17 12:18:13;;;;;;;0.57;0.57;;;;;;;;;;5060747;27;89806;-60
2022/11/17 12:20:58;;;;;;;0.63;0.20;;;;;;;;;;5060112;27;86992;-60
2022/11/17 12:23:29;;;;;;;0.50;0.43;;;;;;;;;;5061401;27;87059;-60
2022/11/17 12:26:00;;;;;;;0.27;0.27;;;;;;;;;;5064913;27;88120;-60
2022/11/17 12:28:30;;;;;;;0.73;0.50;;;;;;;;;;5064963;27;87773;-60
2022/11/17 12:30:58;;;;;;;0.33;0.33;;;;;;;;;;5064912;27;87046;-60
2022/11/17 12:33:52;;;;;;;0.90;0.50;;;;;;;;;;5065318;27;86449;-61
2022/11/17 12:36:28;;;;;;;0.40;0.40;;;;;;;;;;5064387;27;88082;-60
2022/11/17 12:38:58;;;;;;;0.77;0.50;;;;;;;;;;5064325;27;87927;-61
2022/11/17 12:41:45;;;;;;;1.40;0.50;;;;;;;;;;5064141;27;87851;-60
2022/11/17 12:44:42;;;;;;;0.43;0.20;;;;;;;;;;5064592;27;87046;-60
2022/11/17 12:47:14;;;;;;;0.57;0.57;;;;;;;;;;5063920;27;88229;-60
2022/11/17 12:49:43;;;;;;;0.73;0.73;;;;;;;;;;5063256;27;87992;-60
2022/11/17 12:52:13;;;;;;;0.30;0.30;;;;;;;;;;5062808;27;86958;-61
2022/11/17 12:54:42;;;;;;;0.40;0.40;;;;;;;;;;5064162;27;87717;-60
2022/11/17 12:57:11;;;;;;;0.53;0.53;;;;;;;;;;5063801;27;88927;-60
2022/11/17 12:59:47;;;;;;;0.50;0.50;;;;;;;;;;5063921;27;87801;-60
2022/11/17 13:02:24;;;;;;;0.50;0.50;;;;;;;;;;5063320;27;86997;-60
2022/11/17 13:04:54;;;;;;;0.80;0.77;;;;;;;;;;5063690;27;87075;-60
2022/11/17 13:07:24;;;;;;;1.63;0.67;;;;;;;;;;5063396;27;91870;-60
2022/11/17 13:09:53;;;;;;;0.73;0.73;;;;;;;;;;5064023;27;88777;-60
2022/11/17 13:12:22;;;;;;;3.43;0.60;;;;;;;;;;5064388;27;87070;-60
2022/11/17 13:14:54;;;;;;;0.83;0.73;;;;;;;;;;5064041;27;87047;-60
2022/11/17 13:17:28;;;;;;;0.93;0.63;;;;;;;;;;5063649;27;91328;-60
2022/11/17 13:20:00;;;;;;;0.50;0.50;;;;;;;;;;5062977;27;91568;-60
2022/11/17 13:22:28;;;;;;;1.40;0.53;;;;;;;;;;5043681;28;87166;-60
2022/11/17 13:24:57;;;;;;;1.17;0.93;;;;;;;;;;5043686;28;86244;-60
2022/11/17 13:27:26;;;;;;;0.70;0.40;;;;;;;;;;5043124;28;88244;-60
2022/11/17 13:30:09;;;;;;;1.07;0.90;;;;;;;;;;5043423;28;87779;-60
2022/11/17 13:32:40;;;;;;;0.40;0.40;;;;;;;;;;5043354;28;88772;-60
2022/11/17 13:35:18;;;;;;;0.40;0.40;;;;;;;;;;5043467;27;86931;-60
2022/11/17 13:37:47;;;;;;;0.70;0.60;;;;;;;;;;5042657;28;87969;-60
2022/11/17 13:40:19;;;;;;;0.50;0.50;;;;;;;;;;5042383;28;87726;-60
2022/11/17 13:42:47;;;;;;;1.10;0.87;;;;;;;;;;5043689;28;87090;-60
2022/11/17 13:45:16;;;;;;;0.73;0.60;;;;;;;;;;5042969;28;87156;-60
2022/11/17 13:47:46;;;;;;;0.67;0.40;;;;;;;;;;5042703;28;89274;-60
2022/11/17 13:50:21;;;;;;;0.83;0.57;;;;;;;;;;5043123;27;87773;-60
2022/11/17 13:52:52;;;;;;;1.97;0.70;;;;;;;;;;5063957;27;87013;-60
2022/11/17 13:55:20;;;;;;;0.80;0.60;;;;;;;;;;5063141;27;87068;-60
2022/11/17 13:57:58;;;;;;;1.17;0.50;;;;;;;;;;5062694;27;89154;-60
2022/11/17 14:00:27;;;;;;;3.40;0.87;;;;;;;;;;5062658;27;89616;-60
2022/11/17 14:02:57;;;;;;;0.50;0.40;;;;;;;;;;5063262;27;87170;-60
2022/11/17 14:05:25;;;;;;;0.93;0.50;;;;;;;;;;5063003;27;87099;-60
2022/11/17 14:07:55;;;;;;;0.50;0.50;;;;;;;;;;5063256;27;89280;-61
2022/11/17 14:10:27;;;;;;;0.60;0.60;;;;;;;;;;5063061;27;88867;-61
2022/11/17 14:13:09;;;;;;;1.33;0.83;;;;;;;;;;5062862;27;86964;-61
2022/11/17 14:15:38;;;;;;;1.10;0.60;;;;;;;;;;5062411;27;86320;-61
2022/11/17 14:18:18;;;;;;;2.10;0.50;;;;;;;;;;5062667;27;87971;-61
2022/11/17 14:20:46;;;;;;;1.27;0.50;;;;;;;;;;5062367;27;88899;-61
2022/11/17 14:23:17;;;;;;;1.07;0.60;;;;;;;;;;5062057;27;88068;-61
2022/11/17 14:25:47;;;;;;;0.73;0.73;;;;;;;;;;5062325;27;87063;-61
2022/11/17 14:28:15;;;;;;;1.00;0.50;;;;;;;;;;5062989;27;87895;-61
2022/11/17 14:30:44;;;;;;;1.40;0.73;;;;;;;;;;5062801;27;88789;-61
2022/11/17 14:33:14;;;;;;;1.50;0.70;;;;;;;;;;5062428;27;87049;-61
2022/11/17 14:35:42;;;;;;;0.27;0.27;;;;;;;;;;5062449;27;87051;-61
2022/11/17 14:38:11;;;;;;;0.77;0.77;;;;;;;;;;5062163;27;91393;-61
2022/11/17 14:40:39;;;;;;;0.93;0.70;;;;;;;;;;5062766;27;87922;-61
2022/11/17 14:43:08;;;;;;;0.40;0.40;;;;;;;;;;5063229;27;87068;-61
2022/11/17 14:45:36;;;;;;;0.60;0.60;;;;;;;;;;5062182;27;87150;-60
2022/11/17 14:48:05;;;;;;;2.00;0.70;;;;;;;;;;5061977;27;93168;-61
2022/11/17 14:50:35;;;;;;;3.10;0.83;;;;;;;;;;5062233;27;88730;-61
2022/11/17 14:53:03;;;;;;;0.90;0.70;;;;;;;;;;5062652;27;87299;-61
2022/11/17 14:55:32;;;;;;;0.70;0.70;;;;;;;;;;5062462;27;86917;-61
2022/11/17 14:58:00;;;;;;;0.77;0.70;;;;;;;;;;5062586;27;87056;-61
2022/11/17 15:00:28;;;;;;;0.47;0.43;;;;;;;;;;5062448;27;88812;-61
2022/11/17 15:02:57;;;;;;;0.40;0.40;;;;;;;;;;5063011;27;86951;-61
2022/11/17 15:05:26;;;;;;;0.47;0.40;;;;;;;;;;5062730;27;86316;-61
2022/11/17 15:07:57;;;;;;;0.80;0.53;;;;;;;;;;5062839;27;88247;-61
2022/11/17 15:10:25;;;;;;;0.30;0.30;;;;;;;;;;5062502;27;88995;-61
2022/11/17 15:12:54;;;;;;;0.80;0.70;;;;;;;;;;5062207;27;88078;-61
2022/11/17 15:15:22;;;;;;;0.87;0.83;;;;;;;;;;5062129;27;87094;-61
2022/11/17 15:17:51;;;;;;;1.40;0.50;;;;;;;;;;5062412;27;88040;-60
2022/11/17 15:20:19;;;;;;;1.20;0.43;;;;;;;;;;5061588;27;88942;-61
2022/11/17 15:22:48;;;;;;;1.53;0.97;;;;;;;;;;5062417;27;87087;-61
2022/11/17 15:25:18;;;;;;;0.50;0.50;;;;;;;;;;5062932;27;87058;-61
2022/11/17 15:27:47;;;;;;;0.73;0.67;;;;;;;;;;5062591;27;89194;-60